Time;durP1;ratioP1;P1;durP2;ratioP2;P2;SDS_P1;SDS_P2;PMS_P1;PMS_P2;Temp;Humidity;BMP_temperature;BMP_pressure;BME280_temperature;BME280_humidity;BME280_pressure;Samples;Min_cycle;Max_cycle;Signal;HPM_P1;HPM_P2
2023/12/31 00:01:13;;;;;;;11.30;4.53;;;;;;;7.31;96.36;63699.22;5073067;28;20242;-54
2023/12/31 00:03:38;;;;;;;6.60;4.47;;;;;;;7.30;95.71;63700.09;5073390;28;20212;-54
2023/12/31 00:06:04;;;;;;;5.67;4.47;;;;;;;7.23;96.87;63692.47;5073340;28;20185;-54
2023/12/31 00:08:30;;;;;;;7.03;4.27;;;;;;;7.51;94.15;63720.50;5055144;28;20209;-54
2023/12/31 00:10:55;;;;;;;5.70;4.30;;;;;;;7.50;93.66;63719.41;5073212;28;20181;-53
2023/12/31 00:13:20;;;;;;;6.10;4.40;;;;;;;7.40;94.81;63711.00;5072839;28;20601;-53
2023/12/31 00:15:46;;;;;;;8.00;5.00;;;;;;;7.29;97.78;63699.53;5073157;28;20196;-55
2023/12/31 00:18:11;;;;;;;7.43;5.10;;;;;;;7.43;98.11;63714.81;5072831;28;20236;-54
2023/12/31 00:20:37;;;;;;;8.77;4.67;;;;;;;7.66;95.02;63739.38;5072876;28;20192;-54
2023/12/31 00:23:03;;;;;;;9.00;4.90;;;;;;;7.67;95.13;63740.47;5073200;28;20212;-54
2023/12/31 00:25:28;;;;;;;7.50;5.17;;;;;;;7.53;96.13;63722.69;5072706;28;20651;-57
2023/12/31 00:27:54;;;;;;;8.07;5.43;;;;;;;7.54;95.79;63723.75;5073078;28;20209;-53
2023/12/31 00:30:19;;;;;;;6.70;4.57;;;;;;;7.52;95.83;63724.63;5054716;28;20318;-55
2023/12/31 00:32:45;;;;;;;7.57;4.90;;;;;;;7.40;97.64;63711.00;5072750;28;20714;-54
2023/12/31 00:35:10;;;;;;;6.53;5.00;;;;;;;7.27;100.00;63694.31;5072836;28;20204;-54
2023/12/31 00:37:36;;;;;;;9.63;5.40;;;;;;;7.38;99.07;63706.84;5072323;28;20216;-54
2023/12/31 00:40:02;;;;;;;10.03;5.37;;;;;;;7.40;100.00;63711.00;5072322;28;20181;-54
2023/12/31 00:42:35;;;;;;;7.03;5.07;;;;;;;7.51;100.00;63723.00;5072306;28;20215;-54
2023/12/31 00:45:01;;;;;;;11.53;6.47;;;;;;;7.51;97.31;63720.50;5072484;28;20640;-55
2023/12/31 00:47:27;;;;;;;13.10;6.67;;;;;;;7.56;94.93;63724.00;5072235;28;20266;-55
2023/12/31 00:49:52;;;;;;;10.00;6.07;;;;;;;7.61;95.42;63734.44;5072403;28;20322;-55
2023/12/31 00:52:18;;;;;;;8.57;5.73;;;;;;;7.29;97.83;63697.03;5072247;28;20693;-54
2023/12/31 00:54:43;;;;;;;10.50;6.50;;;;;;;7.32;97.66;63699.75;5072319;28;20177;-54
2023/12/31 00:57:09;;;;;;;7.47;4.87;;;;;;;7.37;96.33;63705.22;5072258;28;20670;-54
2023/12/31 00:59:34;;;;;;;8.83;5.30;;;;;;;7.26;96.80;63695.72;5072339;28;20181;-53
2023/12/31 01:01:59;;;;;;;7.17;5.03;;;;;;;7.12;97.63;63680.44;5072362;28;20224;-53
2023/12/31 01:04:25;;;;;;;7.80;5.43;;;;;;;6.94;100.00;63658.31;5072197;28;20622;-54
2023/12/31 01:06:50;;;;;;;9.57;5.13;;;;;;;7.09;100.00;63677.19;5054079;28;20231;-54
2023/12/31 01:09:16;;;;;;;6.63;5.30;;;;;;;7.13;100.00;63682.06;5072204;28;20184;-53
2023/12/31 01:11:41;;;;;;;7.77;5.63;;;;;;;6.95;100.00;63659.41;5072014;28;20623;-53
2023/12/31 01:14:07;;;;;;;9.23;5.87;;;;;;;6.91;100.00;63657.56;5072097;28;20192;-58
2023/12/31 01:16:32;;;;;;;11.23;5.93;;;;;;;6.97;100.00;63661.59;5071792;28;20670;-58
2023/12/31 01:18:58;;;;;;;8.60;5.80;;;;;;;7.10;100.00;63676.31;5054091;28;20242;-53
2023/12/31 01:21:23;;;;;;;9.57;5.97;;;;;;;7.21;100.00;63685.78;5071987;28;20220;-54
2023/12/31 01:23:49;;;;;;;8.17;5.90;;;;;;;7.04;100.00;63672.28;5071840;28;20246;-55
2023/12/31 01:26:14;;;;;;;10.50;5.93;;;;;;;6.92;100.00;63659.19;5054092;28;20189;-53
2023/12/31 01:28:40;;;;;;;10.53;6.27;;;;;;;7.06;100.00;63673.91;5072000;28;20216;-54
2023/12/31 01:31:05;;;;;;;7.83;6.13;;;;;;;6.90;100.00;63656.47;5071609;28;20205;-53
2023/12/31 01:33:31;;;;;;;10.27;6.30;;;;;;;6.83;100.00;63646.34;5053982;28;20241;-54
2023/12/31 01:35:57;;;;;;;10.80;7.00;;;;;;;6.83;100.00;63646.34;5071807;28;20188;-56
2023/12/31 01:38:22;;;;;;;9.87;5.83;;;;;;;6.78;100.00;63641.97;5072114;28;20590;-55
2023/12/31 01:40:54;;;;;;;15.37;6.40;;;;;;;6.74;100.00;63639.56;5053644;28;20201;-54
2023/12/31 01:43:20;;;;;;;9.50;6.03;;;;;;;6.72;100.00;63637.94;5071586;28;20213;-53
2023/12/31 01:45:46;;;;;;;12.77;6.03;;;;;;;6.81;100.00;63646.66;5071321;28;20598;-55
2023/12/31 01:48:14;;;;;;;8.37;5.93;;;;;;;6.88;100.00;63651.78;5071283;28;20243;-63
2023/12/31 01:50:41;;;;;;;11.17;6.13;;;;;;;6.88;100.00;63654.28;5071427;28;20193;-55
2023/12/31 01:53:07;;;;;;;10.10;6.20;;;;;;;6.81;100.00;63646.66;5071301;28;20228;-54
2023/12/31 01:55:33;;;;;;;11.33;5.80;;;;;;;6.86;100.00;63650.16;5070945;28;20223;-54
2023/12/31 01:57:59;;;;;;;9.50;6.80;;;;;;;7.13;100.00;63682.06;5071530;28;20273;-55
2023/12/31 02:00:25;;;;;;;9.50;6.07;;;;;;;7.17;100.00;63685.91;5071461;28;20287;-55
2023/12/31 02:02:53;;;;;;;8.43;5.83;;;;;;;7.15;100.00;63678.72;5071375;28;20209;-54
2023/12/31 02:05:19;;;;;;;7.90;5.23;;;;;;;7.19;100.00;63685.59;5071192;28;20658;-55
2023/12/31 02:07:44;;;;;;;9.17;6.37;;;;;;;7.01;100.00;63668.47;5071036;28;20208;-55
2023/12/31 02:10:10;;;;;;;9.33;6.20;;;;;;;6.99;100.00;63663.78;5053169;28;20276;-54
2023/12/31 02:12:35;;;;;;;9.17;6.13;;;;;;;7.00;100.00;63665.41;5071054;28;20362;-55
2023/12/31 02:15:01;;;;;;;12.77;6.33;;;;;;;7.17;100.00;63683.94;5071047;28;20200;-54
2023/12/31 02:17:26;;;;;;;8.77;6.40;;;;;;;7.16;100.00;63682.31;5070780;28;20205;-53
2023/12/31 02:19:52;;;;;;;7.93;5.37;;;;;;;7.23;100.00;63689.94;5070962;28;20291;-55
2023/12/31 02:22:18;;;;;;;11.63;6.20;;;;;;;7.14;100.00;63682.63;5071066;28;20539;-54
2023/12/31 02:24:50;;;;;;;9.33;6.07;;;;;;;7.13;100.00;63679.56;5070897;28;20189;-56
2023/12/31 02:27:16;;;;;;;7.80;5.63;;;;;;;7.04;100.00;63671.72;5070807;28;20315;-54
2023/12/31 02:29:41;;;;;;;10.10;6.37;;;;;;;7.14;100.00;63682.63;5070805;28;20289;-55
2023/12/31 02:32:07;;;;;;;10.67;5.73;;;;;;;7.10;100.00;63678.81;5070733;28;20209;-53
2023/12/31 02:34:33;;;;;;;8.07;5.87;;;;;;;7.03;100.00;63668.66;5071069;28;20583;-53
2023/12/31 02:36:58;;;;;;;6.77;5.60;;;;;;;7.15;100.00;63684.25;5052737;28;20228;-55
2023/12/31 02:39:25;;;;;;;8.60;5.80;;;;;;;7.13;100.00;63679.03;5052976;28;20246;-54
2023/12/31 02:41:50;;;;;;;7.90;5.83;;;;;;;7.19;100.00;63688.63;5070641;28;20204;-52
2023/12/31 02:44:17;;;;;;;6.37;4.67;;;;;;;7.29;100.00;63699.00;5070591;28;20204;-54
2023/12/31 02:46:43;;;;;;;7.93;4.70;;;;;;;7.41;99.25;63710.13;5070397;28;20220;-54
2023/12/31 02:49:11;;;;;;;7.03;4.83;;;;;;;7.35;99.97;63703.03;5070595;28;20197;-53
2023/12/31 02:51:37;;;;;;;7.93;5.00;;;;;;;7.25;100.00;63694.63;5070427;28;20658;-58
2023/12/31 02:54:03;;;;;;;6.67;4.57;;;;;;;7.17;100.00;63683.41;5070444;28;20227;-54
2023/12/31 02:56:28;;;;;;;8.40;5.27;;;;;;;7.09;100.00;63672.72;5070336;28;20180;-54
2023/12/31 02:58:54;;;;;;;8.37;5.43;;;;;;;7.10;100.00;63676.31;5052453;28;20291;-54
2023/12/31 03:01:19;;;;;;;8.30;5.27;;;;;;;7.09;100.00;63674.69;5070517;28;20263;-54
2023/12/31 03:03:45;;;;;;;12.40;6.40;;;;;;;7.20;99.89;63687.22;5070667;28;20248;-54
2023/12/31 03:06:14;;;;;;;9.70;6.23;;;;;;;7.03;100.00;63671.16;5071413;28;20574;-54
2023/12/31 03:08:40;;;;;;;10.50;6.07;;;;;;;6.94;100.00;63656.34;5074141;28;20224;-58
2023/12/31 03:11:09;;;;;;;9.03;5.50;;;;;;;6.90;100.00;63652.00;5073944;28;20773;-55
2023/12/31 03:13:35;;;;;;;7.37;4.93;;;;;;;6.96;100.00;63663.56;5073744;28;20361;-54
2023/12/31 03:16:06;;;;;;;8.77;5.50;;;;;;;6.94;100.00;63661.38;5072234;28;20681;-53
2023/12/31 03:18:32;;;;;;;7.77;4.20;;;;;;;6.83;100.00;63648.84;5071739;28;20213;-53
2023/12/31 03:20:58;;;;;;;5.03;4.17;;;;;;;6.80;100.00;63643.59;5073647;28;20275;-54
2023/12/31 03:23:23;;;;;;;7.73;4.43;;;;;;;6.74;100.00;63640.13;5074115;28;20358;-54
2023/12/31 03:25:49;;;;;;;5.20;3.70;;;;;;;6.70;100.00;63632.69;5073686;28;20212;-54
2023/12/31 03:28:14;;;;;;;4.73;3.87;;;;;;;6.63;100.00;63625.06;5073682;28;20231;-55
2023/12/31 03:30:40;;;;;;;5.63;4.20;;;;;;;6.61;100.00;63623.44;5073824;28;20189;-55
2023/12/31 03:33:07;;;;;;;6.87;4.07;;;;;;;6.45;100.00;63611.00;5073799;28;20582;-54
2023/12/31 03:35:32;;;;;;;5.80;4.23;;;;;;;6.27;100.00;63588.31;5073673;28;20220;-55
2023/12/31 03:37:58;;;;;;;5.80;3.93;;;;;;;6.27;100.00;63588.31;5073483;28;20626;-55
2023/12/31 03:40:24;;;;;;;5.13;3.70;;;;;;;6.33;100.00;63592.34;5072257;28;20188;-56
2023/12/31 03:42:50;;;;;;;6.23;3.77;;;;;;;6.34;100.00;63593.47;5072396;28;20223;-55
2023/12/31 03:45:15;;;;;;;8.23;4.60;;;;;;;6.29;100.00;63591.06;5073498;28;20189;-54
2023/12/31 03:47:41;;;;;;;9.27;4.83;;;;;;;6.41;100.00;63603.56;5073568;28;20312;-55
2023/12/31 03:50:07;;;;;;;7.07;4.00;;;;;;;6.30;100.00;63591.59;5073342;28;20189;-54
2023/12/31 03:52:32;;;;;;;5.20;3.80;;;;;;;6.41;100.00;63603.56;5073014;28;20225;-54
2023/12/31 03:54:58;;;;;;;4.97;3.90;;;;;;;6.41;100.00;63601.63;5055155;28;20181;-53
2023/12/31 03:57:24;;;;;;;8.60;4.47;;;;;;;6.48;100.00;63609.28;5073278;28;20250;-54
2023/12/31 03:59:51;;;;;;;6.23;4.30;;;;;;;6.51;100.00;63617.53;5073136;28;20227;-54
2023/12/31 04:02:17;;;;;;;6.23;3.93;;;;;;;6.56;100.00;63618.00;5073004;28;20205;-53
2023/12/31 04:04:42;;;;;;;7.50;4.50;;;;;;;6.48;100.00;63611.78;5072857;28;20730;-54
2023/12/31 04:07:09;;;;;;;6.40;4.30;;;;;;;6.37;100.00;63597.28;5072468;28;20300;-54
2023/12/31 04:09:35;;;;;;;5.87;4.37;;;;;;;6.39;100.00;63604.44;5073136;28;20288;-55
2023/12/31 04:12:04;;;;;;;6.20;4.20;;;;;;;6.43;100.00;63605.75;5073102;28;20272;-58
2023/12/31 04:14:30;;;;;;;8.23;4.37;;;;;;;6.42;100.00;63604.69;5073053;28;20185;-54
2023/12/31 04:16:56;;;;;;;6.90;3.80;;;;;;;6.36;100.00;63595.63;5072321;28;20774;-54
2023/12/31 04:19:21;;;;;;;7.20;4.00;;;;;;;6.36;100.00;63598.66;5072802;28;20196;-55
2023/12/31 04:21:47;;;;;;;7.50;5.03;;;;;;;6.37;100.00;63599.78;5072906;28;20307;-60
2023/12/31 04:24:12;;;;;;;4.80;4.10;;;;;;;6.41;100.00;63601.06;5073017;28;20189;-55
2023/12/31 04:26:44;;;;;;;6.23;4.10;;;;;;;6.32;100.00;63591.81;5072619;28;20185;-55
2023/12/31 04:29:13;;;;;;;6.77;4.03;;;;;;;6.38;100.00;63598.34;5073018;28;20205;-53
2023/12/31 04:31:43;;;;;;;8.03;4.30;;;;;;;6.33;100.00;63594.84;5072636;28;20189;-55
2023/12/31 04:34:09;;;;;;;7.13;4.30;;;;;;;6.64;100.00;63629.22;5072706;28;20239;-55
2023/12/31 04:36:34;;;;;;;5.60;4.10;;;;;;;6.70;100.00;63635.75;5072350;28;20189;-54
2023/12/31 04:39:00;;;;;;;7.10;4.33;;;;;;;6.49;100.00;63612.84;5072532;28;20638;-54
2023/12/31 04:41:25;;;;;;;8.90;4.60;;;;;;;6.21;100.00;63582.34;5072593;28;20189;-57
2023/12/31 04:43:51;;;;;;;7.77;5.20;;;;;;;6.16;100.00;63576.34;5072717;28;20204;-54
2023/12/31 04:46:20;;;;;;;11.77;6.63;;;;;;;5.62;100.00;63518.03;5071814;28;20635;-53
2023/12/31 04:48:46;;;;;;;12.67;8.47;;;;;;;4.84;100.00;63431.19;5072155;28;20229;-54
2023/12/31 04:51:23;;;;;;;11.33;8.07;;;;;;;4.75;100.00;63421.94;5072283;28;20199;-54
2023/12/31 04:53:48;;;;;;;16.43;9.17;;;;;;;4.41;100.00;63387.44;5054593;28;20212;-54
2023/12/31 04:56:21;;;;;;;15.73;8.70;;;;;;;4.45;100.00;63391.78;5072538;28;20181;-54
2023/12/31 04:58:49;;;;;;;17.27;10.50;;;;;;;4.73;100.00;63419.75;5072578;28;20698;-54
2023/12/31 05:01:15;;;;;;;17.27;10.83;;;;;;;4.89;100.00;63439.66;5072317;28;20181;-54
2023/12/31 05:03:40;;;;;;;18.37;12.63;;;;;;;4.97;100.00;63448.38;5072396;28;20702;-54
2023/12/31 05:06:06;;;;;;;22.13;13.30;;;;;;;5.12;100.00;63461.66;5072329;28;20629;-54
2023/12/31 05:08:32;;;;;;;24.57;13.80;;;;;;;5.07;100.00;63456.75;5072183;28;20220;-54
2023/12/31 05:10:58;;;;;;;17.53;11.47;;;;;;;5.04;100.00;63453.50;5072128;28;20242;-56
2023/12/31 05:13:23;;;;;;;27.30;15.23;;;;;;;5.28;100.00;63479.06;5072324;28;20667;-55
2023/12/31 05:15:49;;;;;;;35.47;20.30;;;;;;;5.41;100.00;63492.69;5072050;28;20180;-54
2023/12/31 05:18:14;;;;;;;29.70;18.93;;;;;;;5.03;100.00;63452.41;5054167;28;20225;-54
2023/12/31 05:20:40;;;;;;;34.40;19.47;;;;;;;5.13;100.00;63463.28;5071931;28;20280;-54
2023/12/31 05:23:05;;;;;;;29.93;18.30;;;;;;;4.92;100.00;63440.44;5071818;28;20208;-54
2023/12/31 05:25:31;;;;;;;40.63;24.23;;;;;;;4.70;100.00;63416.50;5071947;28;20203;-54
2023/12/31 05:27:56;;;;;;;35.17;21.43;;;;;;;4.72;100.00;63418.13;5071637;28;20205;-55
2023/12/31 05:30:22;;;;;;;40.77;22.67;;;;;;;4.87;100.00;63435.00;5071194;28;20216;-54
2023/12/31 05:32:48;;;;;;;37.83;21.60;;;;;;;5.00;100.00;63451.66;5071171;28;20227;-54
2023/12/31 05:35:13;;;;;;;41.33;22.67;;;;;;;5.29;100.00;63479.63;5071681;28;20193;-54
2023/12/31 05:37:39;;;;;;;31.87;19.07;;;;;;;5.16;100.00;63467.97;5071495;28;20208;-57
2023/12/31 05:40:05;;;;;;;27.00;17.73;;;;;;;5.05;100.00;63457.06;5071537;28;20197;-55
2023/12/31 05:42:31;;;;;;;31.20;18.20;;;;;;;5.16;100.00;63465.47;5071766;28;20216;-54
2023/12/31 05:44:57;;;;;;;28.00;18.60;;;;;;;5.18;100.00;63467.63;5071514;28;20271;-53
2023/12/31 05:47:22;;;;;;;35.77;21.97;;;;;;;5.13;100.00;63465.22;5071473;28;20618;-58
2023/12/31 05:49:48;;;;;;;36.87;22.33;;;;;;;5.19;100.00;63471.78;5071320;28;20188;-54
2023/12/31 05:52:13;;;;;;;36.67;21.80;;;;;;;5.15;100.00;63467.44;5071250;28;20216;-54
2023/12/31 05:54:42;;;;;;;41.73;25.63;;;;;;;5.02;100.00;63456.31;5071267;28;20227;-55
2023/12/31 05:57:08;;;;;;;41.50;24.27;;;;;;;4.98;100.00;63448.91;5071663;28;20271;-54
2023/12/31 05:59:33;;;;;;;40.77;23.70;;;;;;;4.91;100.00;63441.28;5071430;28;20181;-55
2023/12/31 06:01:59;;;;;;;39.93;24.67;;;;;;;5.09;100.00;63460.88;5053499;28;20212;-64
2023/12/31 06:04:24;;;;;;;37.30;23.13;;;;;;;4.92;100.00;63442.94;5071221;28;20173;-54
2023/12/31 06:06:50;;;;;;;38.80;21.90;;;;;;;5.27;100.00;63479.94;5053566;28;20197;-53
2023/12/31 06:09:15;;;;;;;35.53;21.47;;;;;;;5.35;100.00;63486.16;5071057;28;20593;-53
2023/12/31 06:11:41;;;;;;;40.93;23.33;;;;;;;5.23;100.00;63473.63;5070940;28;20196;-56
2023/12/31 06:14:07;;;;;;;38.50;22.20;;;;;;;5.07;100.00;63459.25;5071115;28;20614;-54
2023/12/31 06:16:33;;;;;;;38.23;22.27;;;;;;;5.10;100.00;63460.03;5070919;28;20256;-55
2023/12/31 06:18:58;;;;;;;38.03;22.00;;;;;;;5.14;100.00;63468.81;5052984;28;20306;-57
2023/12/31 06:21:24;;;;;;;38.63;23.37;;;;;;;5.17;100.00;63469.06;5070886;28;20287;-56
2023/12/31 06:23:49;;;;;;;40.57;24.23;;;;;;;5.23;100.00;63475.59;5053224;28;20598;-54
2023/12/31 06:26:15;;;;;;;39.23;23.03;;;;;;;5.36;100.00;63489.72;5071167;28;20193;-54
2023/12/31 06:28:40;;;;;;;37.57;22.87;;;;;;;5.40;100.00;63492.13;5070518;28;20675;-54
2023/12/31 06:31:06;;;;;;;38.50;24.10;;;;;;;5.44;100.00;63498.44;5071068;28;20185;-54
2023/12/31 06:33:32;;;;;;;53.30;29.90;;;;;;;4.68;100.00;63416.81;5071005;28;20221;-54
2023/12/31 06:35:57;;;;;;;55.63;27.77;;;;;;;5.01;100.00;63450.22;5070730;28;20263;-53
2023/12/31 06:38:23;;;;;;;42.43;25.03;;;;;;;5.51;100.00;63506.06;5052703;28;20217;-55
2023/12/31 06:40:48;;;;;;;43.13;22.43;;;;;;;5.45;100.00;63499.53;5070505;28;20180;-54
2023/12/31 06:43:14;;;;;;;35.00;22.10;;;;;;;5.32;100.00;63485.38;5070963;28;20591;-53
2023/12/31 06:45:40;;;;;;;36.40;21.27;;;;;;;5.53;100.00;63505.75;5070561;28;20192;-54
2023/12/31 06:48:06;;;;;;;35.17;20.33;;;;;;;5.60;100.00;63513.34;5070827;28;20216;-55
2023/12/31 06:50:32;;;;;;;21.50;14.17;;;;;;;5.77;100.00;63532.44;5070485;28;20203;-55
2023/12/31 06:52:58;;;;;;;18.57;9.87;;;;;;;5.60;100.00;63516.41;5070575;28;20232;-54
2023/12/31 06:55:23;;;;;;;16.97;10.83;;;;;;;5.68;100.00;63522.63;5052142;28;20242;-54
2023/12/31 06:57:49;;;;;;;23.53;15.67;;;;;;;5.72;100.00;63528.94;5051426;28;20724;-52
2023/12/31 07:00:15;;;;;;;26.60;14.83;;;;;;;5.81;100.00;63539.28;5052458;28;20188;-52
2023/12/31 07:02:41;;;;;;;36.20;19.13;;;;;;;5.90;100.00;63546.06;5052705;28;20220;-54
2023/12/31 07:05:08;;;;;;;29.17;16.80;;;;;;;6.23;100.00;63583.97;5070634;28;20570;-55
2023/12/31 07:07:34;;;;;;;20.27;12.07;;;;;;;6.39;100.00;63601.94;5070141;28;20223;-55
2023/12/31 07:10:00;;;;;;;17.50;10.17;;;;;;;6.37;100.00;63597.28;5052284;28;20280;-54
2023/12/31 07:12:25;;;;;;;20.77;12.77;;;;;;;6.47;100.00;63610.13;5070500;28;20311;-54
2023/12/31 07:14:51;;;;;;;20.23;13.00;;;;;;;6.18;100.00;63579.06;5052318;28;20615;-55
2023/12/31 07:17:17;;;;;;;16.23;10.83;;;;;;;6.00;100.00;63554.44;5070563;28;20216;-54
2023/12/31 07:19:43;;;;;;;15.20;10.30;;;;;;;6.11;100.00;63565.88;5051937;28;20578;-54
2023/12/31 07:22:08;;;;;;;18.30;12.33;;;;;;;6.49;100.00;63612.84;5070338;28;20217;-55
2023/12/31 07:24:34;;;;;;;21.17;13.27;;;;;;;6.63;100.00;63628.09;5070361;28;20198;-54
2023/12/31 07:26:59;;;;;;;26.30;15.03;;;;;;;6.68;100.00;63633.56;5070198;28;20307;-54
2023/12/31 07:29:25;;;;;;;22.77;14.60;;;;;;;6.62;100.00;63627.03;5070228;28;20193;-55
2023/12/31 07:31:51;;;;;;;19.83;13.50;;;;;;;6.90;100.00;63653.94;5070169;28;20209;-53
2023/12/31 07:34:16;;;;;;;24.00;14.27;;;;;;;7.11;100.00;63676.88;5070205;28;20185;-57
2023/12/31 07:36:42;;;;;;;26.93;14.27;;;;;;;7.09;100.00;63677.72;5069886;28;20590;-55
2023/12/31 07:39:08;;;;;;;21.60;12.20;;;;;;;7.39;100.00;63709.91;5069847;28;20196;-55
2023/12/31 07:41:33;;;;;;;18.20;10.83;;;;;;;7.35;100.00;63706.06;5051907;28;20181;-56
2023/12/31 07:43:59;;;;;;;15.80;9.53;;;;;;;7.33;100.00;63701.38;5069952;28;20189;-54
2023/12/31 07:46:25;;;;;;;18.40;11.70;;;;;;;7.55;100.00;63727.38;5069701;28;20646;-61
2023/12/31 07:48:52;;;;;;;19.07;11.63;;;;;;;7.30;100.00;63698.13;5069792;28;20246;-56
2023/12/31 07:51:18;;;;;;;18.70;12.03;;;;;;;7.41;100.00;63714.59;5069211;28;20212;-54
2023/12/31 07:53:44;;;;;;;23.40;13.93;;;;;;;7.70;100.00;63743.19;5073252;28;20240;-53
2023/12/31 07:56:10;;;;;;;21.47;12.53;;;;;;;7.68;100.00;63744.06;5073233;28;20184;-55
2023/12/31 07:58:35;;;;;;;19.60;13.10;;;;;;;7.94;100.00;63769.91;5073180;28;20650;-54
2023/12/31 08:01:02;;;;;;;23.00;13.50;;;;;;;8.20;98.79;63795.81;5073275;28;20568;-54
2023/12/31 08:03:29;;;;;;;18.73;12.63;;;;;;;8.48;95.70;63825.31;5073101;28;20690;-55
2023/12/31 08:05:55;;;;;;;23.13;14.23;;;;;;;8.47;97.26;63827.28;5073055;28;20185;-54
2023/12/31 08:08:20;;;;;;;22.10;14.03;;;;;;;8.85;94.29;63866.28;5072709;28;20224;-54
2023/12/31 08:10:46;;;;;;;20.77;12.57;;;;;;;9.01;91.66;63886.28;5054963;28;20185;-54
2023/12/31 08:13:11;;;;;;;19.43;13.30;;;;;;;9.19;89.57;63903.44;5054182;28;20217;-54
2023/12/31 08:15:37;;;;;;;21.53;13.77;;;;;;;9.23;90.66;63909.78;5053155;28;20180;-54
2023/12/31 08:18:05;;;;;;;22.30;13.60;;;;;;;9.55;87.90;63942.25;5072593;28;20706;-57
2023/12/31 08:20:31;;;;;;;19.03;12.20;;;;;;;9.89;85.52;63978.88;5072707;28;20185;-54
2023/12/31 08:22:58;;;;;;;16.10;11.23;;;;;;;10.11;82.74;64003.53;5072989;28;20212;-55
2023/12/31 08:25:23;;;;;;;17.17;11.60;;;;;;;10.47;81.20;64044.31;5072982;28;20203;-54
2023/12/31 08:27:49;;;;;;;17.93;10.90;;;;;;;10.90;77.59;64086.91;5072708;28;20217;-54
2023/12/31 08:30:14;;;;;;;16.23;11.73;;;;;;;11.09;76.73;64109.16;5072695;28;20197;-53
2023/12/31 08:32:40;;;;;;;18.27;13.00;;;;;;;11.29;74.05;64131.59;5072541;28;20221;-53
2023/12/31 08:35:08;;;;;;;19.13;12.90;;;;;;;11.58;73.56;64163.38;5072554;28;20743;-59
2023/12/31 08:37:34;;;;;;;19.00;12.10;;;;;;;11.86;71.74;64192.97;5072466;28;20270;-54
2023/12/31 08:39:59;;;;;;;23.97;13.33;;;;;;;12.02;73.69;64213.03;5072439;28;20189;-55
2023/12/31 08:42:25;;;;;;;22.53;14.30;;;;;;;12.21;72.07;64231.34;5072402;28;20208;-53
2023/12/31 08:44:51;;;;;;;21.63;13.27;;;;;;;12.47;69.48;64260.41;5054508;28;20654;-55
2023/12/31 08:47:17;;;;;;;24.27;13.90;;;;;;;12.62;67.18;64276.31;5071236;28;20205;-54
2023/12/31 08:49:42;;;;;;;26.53;14.03;;;;;;;13.00;65.06;64318.00;5054011;28;20193;-54
2023/12/31 08:52:08;;;;;;;22.13;13.77;;;;;;;13.12;64.69;64331.19;5072158;28;20209;-54
2023/12/31 08:54:42;;;;;;;18.67;13.70;;;;;;;13.32;64.18;64350.59;5072272;28;20227;-53
2023/12/31 08:57:08;;;;;;;20.87;13.93;;;;;;;13.30;64.56;64350.94;5072390;28;20223;-53
2023/12/31 08:59:33;;;;;;;21.70;13.37;;;;;;;13.85;64.37;64408.22;5072162;28;20530;-55
2023/12/31 09:01:59;;;;;;;18.98;13.23;;;;;;;13.69;62.13;64390.66;5037401;28;20216;-53
2023/12/31 09:04:28;;;;;;;18.20;13.20;;;;;;;14.08;60.67;64436.00;5072000;28;20192;-54
2023/12/31 09:06:53;;;;;;;19.77;13.02;;;;;;;14.03;61.90;64429.97;5071060;28;20212;-55
2023/12/31 09:09:19;;;;;;;19.80;13.80;;;;;;;14.27;58.94;64456.91;5070176;28;20196;-58
2023/12/31 09:11:45;;;;;;;20.33;13.63;;;;;;;14.42;58.62;64475.38;5053562;28;20588;-54
2023/12/31 09:14:10;;;;;;;18.77;13.30;;;;;;;14.40;58.95;64473.19;5071922;28;20234;-53
2023/12/31 09:16:36;;;;;;;16.75;12.85;;;;;;;14.22;60.31;64451.41;5071827;28;20642;-54
2023/12/31 09:19:02;;;;;;;18.80;13.07;;;;;;;14.63;59.07;64493.38;5070379;28;20192;-54
2023/12/31 09:21:27;;;;;;;18.67;13.17;;;;;;;14.60;58.09;64490.09;5053801;28;20553;-54
2023/12/31 09:23:53;;;;;;;18.35;12.57;;;;;;;14.66;58.41;64496.69;5071730;28;20185;-54
2023/12/31 09:26:19;;;;;;;18.58;13.00;;;;;;;14.71;58.71;64504.72;5071779;28;20191;-53
2023/12/31 09:28:45;;;;;;;17.77;13.32;;;;;;;14.99;56.61;64532.94;5072009;28;20209;-54
2023/12/31 09:31:10;;;;;;;23.33;14.65;;;;;;;15.03;56.10;64539.88;5071674;28;20570;-53
2023/12/31 09:33:36;;;;;;;17.95;13.02;;;;;;;15.31;55.76;64569.59;5071675;28;20224;-55
2023/12/31 09:36:05;;;;;;;20.65;13.10;;;;;;;15.33;55.51;64574.31;5053475;28;20189;-53
2023/12/31 09:38:31;;;;;;;18.65;13.65;;;;;;;15.43;54.00;64580.78;5053746;28;20213;-53
2023/12/31 09:40:57;;;;;;;20.20;13.70;;;;;;;15.57;54.16;64598.75;5071844;28;20188;-54
2023/12/31 09:43:24;;;;;;;20.48;14.10;;;;;;;15.88;53.37;64629.75;5071977;28;20270;-54
2023/12/31 09:45:51;;;;;;;22.58;15.85;;;;;;;16.07;52.88;64650.66;5071671;28;20185;-53
2023/12/31 09:48:19;;;;;;;21.60;15.40;;;;;;;16.25;52.59;64669.91;5071878;28;20282;-53
2023/12/31 09:50:45;;;;;;;18.25;13.13;;;;;;;16.38;51.09;64687.31;5071339;28;20184;-54
2023/12/31 09:53:11;;;;;;;21.60;14.02;;;;;;;16.43;49.98;64689.72;5071467;28;20285;-54
2023/12/31 09:55:38;;;;;;;22.13;13.30;;;;;;;16.37;50.54;64683.69;5053164;28;20366;-54
2023/12/31 09:58:06;;;;;;;19.15;13.07;;;;;;;16.25;51.30;64670.47;5071338;28;20209;-54
2023/12/31 10:00:31;;;;;;;23.40;13.60;;;;;;;16.40;50.91;64686.97;5052689;28;20196;-54
2023/12/31 10:02:57;;;;;;;21.98;13.93;;;;;;;16.28;50.84;64676.31;5071099;28;20627;-54
2023/12/31 10:05:25;;;;;;;16.55;12.15;;;;;;;16.24;50.07;64668.84;5071112;28;20185;-53
2023/12/31 10:07:54;;;;;;;16.40;12.70;;;;;;;15.90;51.19;64634.50;5071032;28;20354;-53
2023/12/31 10:10:20;;;;;;;15.30;9.23;;;;;;;15.82;50.51;64625.69;5071094;28;20188;-55
2023/12/31 10:12:47;;;;;;;15.45;10.25;;;;;;;16.10;50.12;64653.97;5071187;28;20235;-54
2023/12/31 10:15:13;;;;;;;16.75;10.20;;;;;;;16.12;50.29;64656.16;5070509;28;20730;-54
2023/12/31 10:17:38;;;;;;;15.00;10.23;;;;;;;16.20;49.59;64664.44;5070961;28;20251;-54
2023/12/31 10:20:07;;;;;;;18.75;11.07;;;;;;;15.91;51.38;64633.06;5071054;28;20203;-55
2023/12/31 10:22:35;;;;;;;15.57;10.65;;;;;;;15.98;50.60;64640.22;5070756;28;20209;-53
2023/12/31 10:25:17;;;;;;;13.80;9.70;;;;;;;16.20;50.61;64667.50;5069486;28;20185;-55
2023/12/31 10:27:46;;;;;;;14.13;11.00;;;;;;;16.26;50.13;64669.03;5069821;28;20694;-54
2023/12/31 10:30:12;;;;;;;13.05;9.90;;;;;;;16.65;50.19;64716.53;5052824;28;20247;-54
2023/12/31 10:32:38;;;;;;;14.52;10.70;;;;;;;16.74;48.65;64727.00;5070734;28;20213;-54
2023/12/31 10:35:05;;;;;;;12.70;10.27;;;;;;;16.85;48.83;64738.00;5070812;28;20189;-54
2023/12/31 10:37:30;;;;;;;15.48;11.20;;;;;;;17.07;48.88;64759.69;5070793;28;20299;-54
2023/12/31 10:39:56;;;;;;;14.90;10.68;;;;;;;17.16;48.26;64770.16;5070796;28;20272;-55
2023/12/31 10:42:22;;;;;;;18.35;10.43;;;;;;;17.16;47.25;64767.06;5070705;28;20209;-54
2023/12/31 10:44:53;;;;;;;14.30;10.15;;;;;;;16.96;47.64;64747.56;5070740;28;20195;-53
2023/12/31 10:47:23;;;;;;;12.57;10.23;;;;;;;17.17;47.64;64771.25;5069860;28;20224;-54
2023/12/31 10:49:49;;;;;;;16.13;10.00;;;;;;;17.41;47.03;64797.16;5051269;28;20197;-54
2023/12/31 10:52:16;;;;;;;14.25;10.90;;;;;;;17.29;47.52;64783.94;5070518;28;20575;-53
2023/12/31 10:54:51;;;;;;;12.13;8.77;;;;;;;17.52;46.77;64809.28;5070604;28;20645;-53
2023/12/31 10:57:20;;;;;;;11.45;8.13;;;;;;;17.64;45.84;64819.97;5070642;28;20626;-58
2023/12/31 10:59:48;;;;;;;11.27;7.88;;;;;;;17.40;47.27;64793.50;5070588;28;20196;-53
2023/12/31 11:02:17;;;;;;;12.00;8.30;;;;;;;17.72;46.79;64831.31;5052491;28;20213;-54
2023/12/31 11:04:48;;;;;;;8.98;7.60;;;;;;;17.60;47.23;64818.66;5070403;28;20243;-54
2023/12/31 11:07:18;;;;;;;12.23;7.72;;;;;;;17.39;47.29;64794.94;5070464;28;20694;-54
2023/12/31 11:09:48;;;;;;;13.07;8.55;;;;;;;17.37;46.93;64792.75;5070261;28;20204;-55
2023/12/31 11:12:15;;;;;;;9.98;5.90;;;;;;;17.52;47.37;64811.84;5069319;28;20224;-54
2023/12/31 11:15:00;;;;;;;6.88;5.18;;;;;;;17.56;46.72;64811.69;5068784;28;20196;-54
2023/12/31 11:17:50;;;;;;;10.15;6.13;;;;;;;17.61;46.61;64819.75;5053012;28;20710;-55
2023/12/31 11:20:54;;;;;;;10.85;6.93;;;;;;;17.42;46.98;64798.25;5052400;28;20197;-54